sensor_id;sensor_type;location;lat;lon;timestamp;P1;durP1;ratioP1;P2;durP2;ratioP2
13218;SDS011;6674;49.152;11.918;2022-07-29T00:00:03;1.77;;;1.67;;
13218;SDS011;6674;49.152;11.918;2022-07-29T00:02:31;2.10;;;1.63;;
13218;SDS011;6674;49.152;11.918;2022-07-29T00:04:59;2.03;;;1.50;;
13218;SDS011;6674;49.152;11.918;2022-07-29T00:07:26;1.70;;;1.57;;
13218;SDS011;6674;49.152;11.918;2022-07-29T00:09:53;2.07;;;1.60;;
13218;SDS011;6674;49.152;11.918;2022-07-29T00:12:20;2.07;;;1.67;;
13218;SDS011;6674;49.152;11.918;2022-07-29T00:14:48;1.53;;;1.43;;
13218;SDS011;6674;49.152;11.918;2022-07-29T00:17:14;2.40;;;1.70;;
13218;SDS011;6674;49.152;11.918;2022-07-29T00:19:41;1.70;;;1.50;;
13218;SDS011;6674;49.152;11.918;2022-07-29T00:22:09;1.90;;;1.70;;
13218;SDS011;6674;49.152;11.918;2022-07-29T00:24:35;2.33;;;1.67;;
13218;SDS011;6674;49.152;11.918;2022-07-29T00:27:02;1.90;;;1.80;;
13218;SDS011;6674;49.152;11.918;2022-07-29T00:29:29;1.80;;;1.70;;
13218;SDS011;6674;49.152;11.918;2022-07-29T00:31:56;3.70;;;1.83;;
13218;SDS011;6674;49.152;11.918;2022-07-29T00:34:22;1.87;;;1.77;;
13218;SDS011;6674;49.152;11.918;2022-07-29T00:37:06;2.47;;;1.90;;
13218;SDS011;6674;49.152;11.918;2022-07-29T00:39:34;1.80;;;1.60;;
13218;SDS011;6674;49.152;11.918;2022-07-29T00:42:02;1.77;;;1.67;;
13218;SDS011;6674;49.152;11.918;2022-07-29T00:44:29;1.87;;;1.53;;
13218;SDS011;6674;49.152;11.918;2022-07-29T00:46:55;1.70;;;1.60;;
13218;SDS011;6674;49.152;11.918;2022-07-29T00:49:22;1.80;;;1.70;;
13218;SDS011;6674;49.152;11.918;2022-07-29T00:51:49;2.20;;;2.10;;
13218;SDS011;6674;49.152;11.918;2022-07-29T00:54:16;2.00;;;1.80;;
13218;SDS011;6674;49.152;11.918;2022-07-29T00:56:44;2.17;;;1.97;;
13218;SDS011;6674;49.152;11.918;2022-07-29T00:59:10;4.23;;;2.20;;
13218;SDS011;6674;49.152;11.918;2022-07-29T01:01:37;2.20;;;1.80;;
13218;SDS011;6674;49.152;11.918;2022-07-29T01:04:04;1.90;;;1.80;;
13218;SDS011;6674;49.152;11.918;2022-07-29T01:06:32;1.60;;;1.50;;
13218;SDS011;6674;49.152;11.918;2022-07-29T01:08:59;1.97;;;1.73;;
13218;SDS011;6674;49.152;11.918;2022-07-29T01:11:26;1.80;;;1.70;;
13218;SDS011;6674;49.152;11.918;2022-07-29T01:13:55;3.20;;;2.17;;
13218;SDS011;6674;49.152;11.918;2022-07-29T01:16:24;1.97;;;1.80;;
13218;SDS011;6674;49.152;11.918;2022-07-29T01:19:00;2.67;;;1.80;;
13218;SDS011;6674;49.152;11.918;2022-07-29T01:21:44;1.43;;;1.33;;
13218;SDS011;6674;49.152;11.918;2022-07-29T01:24:27;2.13;;;1.77;;
13218;SDS011;6674;49.152;11.918;2022-07-29T01:27:02;2.10;;;1.57;;
13218;SDS011;6674;49.152;11.918;2022-07-29T01:29:38;2.80;;;1.87;;
13218;SDS011;6674;49.152;11.918;2022-07-29T01:32:08;2.07;;;1.90;;
13218;SDS011;6674;49.152;11.918;2022-07-29T01:34:39;2.47;;;2.27;;
13218;SDS011;6674;49.152;11.918;2022-07-29T01:37:12;2.30;;;2.10;;
13218;SDS011;6674;49.152;11.918;2022-07-29T01:39:44;2.17;;;2.00;;
13218;SDS011;6674;49.152;11.918;2022-07-29T01:42:14;2.10;;;1.90;;
13218;SDS011;6674;49.152;11.918;2022-07-29T01:44:50;1.83;;;1.70;;
13218;SDS011;6674;49.152;11.918;2022-07-29T01:47:23;2.10;;;1.77;;
13218;SDS011;6674;49.152;11.918;2022-07-29T01:49:54;1.83;;;1.73;;
13218;SDS011;6674;49.152;11.918;2022-07-29T01:52:25;2.03;;;1.60;;
13218;SDS011;6674;49.152;11.918;2022-07-29T01:55:02;2.17;;;1.87;;
13218;SDS011;6674;49.152;11.918;2022-07-29T01:57:33;2.00;;;1.90;;
13218;SDS011;6674;49.152;11.918;2022-07-29T02:00:05;2.00;;;1.67;;
13218;SDS011;6674;49.152;11.918;2022-07-29T02:02:33;2.03;;;1.80;;
13218;SDS011;6674;49.152;11.918;2022-07-29T02:05:03;2.13;;;1.93;;
13218;SDS011;6674;49.152;11.918;2022-07-29T02:07:33;2.30;;;1.90;;
13218;SDS011;6674;49.152;11.918;2022-07-29T02:10:03;2.23;;;1.90;;
13218;SDS011;6674;49.152;11.918;2022-07-29T02:12:31;2.53;;;2.20;;
13218;SDS011;6674;49.152;11.918;2022-07-29T02:15:01;1.80;;;1.70;;
13218;SDS011;6674;49.152;11.918;2022-07-29T02:17:31;2.00;;;1.80;;
13218;SDS011;6674;49.152;11.918;2022-07-29T02:19:59;1.40;;;1.40;;
13218;SDS011;6674;49.152;11.918;2022-07-29T02:22:29;1.67;;;1.57;;
13218;SDS011;6674;49.152;11.918;2022-07-29T02:24:59;1.87;;;1.67;;
13218;SDS011;6674;49.152;11.918;2022-07-29T02:27:27;2.53;;;2.00;;
13218;SDS011;6674;49.152;11.918;2022-07-29T02:29:55;2.57;;;2.00;;
13218;SDS011;6674;49.152;11.918;2022-07-29T02:32:24;2.13;;;1.80;;
13218;SDS011;6674;49.152;11.918;2022-07-29T02:34:54;2.00;;;1.90;;
13218;SDS011;6674;49.152;11.918;2022-07-29T02:37:22;2.13;;;1.90;;
13218;SDS011;6674;49.152;11.918;2022-07-29T02:39:50;2.40;;;1.87;;
13218;SDS011;6674;49.152;11.918;2022-07-29T02:42:19;2.47;;;2.10;;
13218;SDS011;6674;49.152;11.918;2022-07-29T02:44:48;3.17;;;2.10;;
13218;SDS011;6674;49.152;11.918;2022-07-29T02:47:17;2.60;;;2.03;;
13218;SDS011;6674;49.152;11.918;2022-07-29T02:49:48;2.13;;;2.03;;
13218;SDS011;6674;49.152;11.918;2022-07-29T02:52:24;2.03;;;1.83;;
13218;SDS011;6674;49.152;11.918;2022-07-29T02:54:54;2.20;;;1.97;;
13218;SDS011;6674;49.152;11.918;2022-07-29T02:57:30;2.13;;;1.93;;
13218;SDS011;6674;49.152;11.918;2022-07-29T03:00:01;2.40;;;2.20;;
13218;SDS011;6674;49.152;11.918;2022-07-29T03:02:31;2.10;;;1.90;;
13218;SDS011;6674;49.152;11.918;2022-07-29T03:05:00;1.80;;;1.70;;
13218;SDS011;6674;49.152;11.918;2022-07-29T03:07:30;2.20;;;1.90;;
13218;SDS011;6674;49.152;11.918;2022-07-29T03:09:57;2.33;;;2.03;;
13218;SDS011;6674;49.152;11.918;2022-07-29T03:12:24;2.43;;;2.20;;
13218;SDS011;6674;49.152;11.918;2022-07-29T03:14:52;2.27;;;2.07;;
13218;SDS011;6674;49.152;11.918;2022-07-29T03:17:19;1.97;;;1.87;;
13218;SDS011;6674;49.152;11.918;2022-07-29T03:19:47;2.30;;;2.10;;
13218;SDS011;6674;49.152;11.918;2022-07-29T03:22:13;2.20;;;2.00;;
13218;SDS011;6674;49.152;11.918;2022-07-29T03:24:42;2.03;;;1.93;;
13218;SDS011;6674;49.152;11.918;2022-07-29T03:27:08;1.90;;;1.80;;
13218;SDS011;6674;49.152;11.918;2022-07-29T03:29:35;1.80;;;1.70;;
13218;SDS011;6674;49.152;11.918;2022-07-29T03:32:02;2.20;;;2.00;;
13218;SDS011;6674;49.152;11.918;2022-07-29T03:34:32;2.43;;;1.97;;
13218;SDS011;6674;49.152;11.918;2022-07-29T03:36:58;2.30;;;2.10;;
13218;SDS011;6674;49.152;11.918;2022-07-29T03:39:25;1.90;;;1.70;;
13218;SDS011;6674;49.152;11.918;2022-07-29T03:41:57;2.33;;;1.73;;
13218;SDS011;6674;49.152;11.918;2022-07-29T03:44:27;2.13;;;1.87;;
13218;SDS011;6674;49.152;11.918;2022-07-29T03:46:55;2.10;;;2.00;;
13218;SDS011;6674;49.152;11.918;2022-07-29T03:49:25;2.10;;;2.00;;
13218;SDS011;6674;49.152;11.918;2022-07-29T03:51:53;2.33;;;2.13;;
13218;SDS011;6674;49.152;11.918;2022-07-29T03:54:20;2.30;;;2.00;;
13218;SDS011;6674;49.152;11.918;2022-07-29T03:56:46;2.40;;;2.07;;
13218;SDS011;6674;49.152;11.918;2022-07-29T03:59:16;2.00;;;1.90;;
13218;SDS011;6674;49.152;11.918;2022-07-29T04:01:45;2.63;;;1.93;;
13218;SDS011;6674;49.152;11.918;2022-07-29T04:04:13;2.60;;;2.10;;
13218;SDS011;6674;49.152;11.918;2022-07-29T04:06:39;2.10;;;2.00;;
13218;SDS011;6674;49.152;11.918;2022-07-29T04:09:07;2.33;;;2.10;;
13218;SDS011;6674;49.152;11.918;2022-07-29T04:11:34;2.53;;;2.30;;
13218;SDS011;6674;49.152;11.918;2022-07-29T04:14:01;2.37;;;2.00;;
13218;SDS011;6674;49.152;11.918;2022-07-29T04:16:29;2.53;;;2.33;;
13218;SDS011;6674;49.152;11.918;2022-07-29T04:18:56;2.73;;;1.90;;
13218;SDS011;6674;49.152;11.918;2022-07-29T04:21:23;1.87;;;1.70;;
13218;SDS011;6674;49.152;11.918;2022-07-29T04:23:50;2.20;;;2.10;;
13218;SDS011;6674;49.152;11.918;2022-07-29T04:26:16;2.03;;;1.93;;
13218;SDS011;6674;49.152;11.918;2022-07-29T04:28:43;3.20;;;2.20;;
13218;SDS011;6674;49.152;11.918;2022-07-29T04:31:10;2.00;;;1.87;;
13218;SDS011;6674;49.152;11.918;2022-07-29T04:33:38;2.43;;;2.33;;
13218;SDS011;6674;49.152;11.918;2022-07-29T04:36:05;2.00;;;1.90;;
13218;SDS011;6674;49.152;11.918;2022-07-29T04:38:32;2.20;;;2.00;;
13218;SDS011;6674;49.152;11.918;2022-07-29T04:40:59;2.03;;;1.93;;
13218;SDS011;6674;49.152;11.918;2022-07-29T04:43:25;2.50;;;2.30;;
13218;SDS011;6674;49.152;11.918;2022-07-29T04:45:52;2.10;;;2.00;;
13218;SDS011;6674;49.152;11.918;2022-07-29T04:48:18;2.63;;;2.10;;
13218;SDS011;6674;49.152;11.918;2022-07-29T04:50:47;2.00;;;1.90;;
13218;SDS011;6674;49.152;11.918;2022-07-29T04:53:13;2.20;;;2.00;;
13218;SDS011;6674;49.152;11.918;2022-07-29T04:55:40;1.90;;;1.80;;
13218;SDS011;6674;49.152;11.918;2022-07-29T04:58:06;2.20;;;2.00;;
13218;SDS011;6674;49.152;11.918;2022-07-29T05:00:33;2.53;;;2.33;;
13218;SDS011;6674;49.152;11.918;2022-07-29T05:03:00;1.97;;;1.87;;
13218;SDS011;6674;49.152;11.918;2022-07-29T05:05:27;1.90;;;1.80;;
13218;SDS011;6674;49.152;11.918;2022-07-29T05:07:55;2.30;;;2.10;;
13218;SDS011;6674;49.152;11.918;2022-07-29T05:10:22;2.00;;;1.80;;
13218;SDS011;6674;49.152;11.918;2022-07-29T05:12:49;2.87;;;2.07;;
13218;SDS011;6674;49.152;11.918;2022-07-29T05:15:15;2.30;;;2.10;;
13218;SDS011;6674;49.152;11.918;2022-07-29T05:17:42;2.33;;;2.00;;
13218;SDS011;6674;49.152;11.918;2022-07-29T05:20:09;2.00;;;1.90;;
13218;SDS011;6674;49.152;11.918;2022-07-29T05:22:36;2.20;;;2.00;;
13218;SDS011;6674;49.152;11.918;2022-07-29T05:25:04;1.93;;;1.83;;
13218;SDS011;6674;49.152;11.918;2022-07-29T05:27:32;2.50;;;2.13;;
13218;SDS011;6674;49.152;11.918;2022-07-29T05:29:58;1.80;;;1.70;;
13218;SDS011;6674;49.152;11.918;2022-07-29T05:32:25;2.40;;;2.20;;
13218;SDS011;6674;49.152;11.918;2022-07-29T05:34:51;2.37;;;2.00;;
13218;SDS011;6674;49.152;11.918;2022-07-29T05:37:18;2.20;;;2.07;;
13218;SDS011;6674;49.152;11.918;2022-07-29T05:39:45;1.70;;;1.60;;
13218;SDS011;6674;49.152;11.918;2022-07-29T05:42:13;2.03;;;1.90;;
13218;SDS011;6674;49.152;11.918;2022-07-29T05:44:40;2.40;;;1.83;;
13218;SDS011;6674;49.152;11.918;2022-07-29T05:47:06;2.33;;;2.13;;
13218;SDS011;6674;49.152;11.918;2022-07-29T05:49:33;2.23;;;2.10;;
13218;SDS011;6674;49.152;11.918;2022-07-29T05:52:00;2.23;;;2.00;;
13218;SDS011;6674;49.152;11.918;2022-07-29T05:54:27;2.70;;;2.27;;
13218;SDS011;6674;49.152;11.918;2022-07-29T05:56:54;2.90;;;1.97;;
13218;SDS011;6674;49.152;11.918;2022-07-29T05:59:22;2.47;;;2.27;;
13218;SDS011;6674;49.152;11.918;2022-07-29T06:01:48;1.97;;;1.87;;
13218;SDS011;6674;49.152;11.918;2022-07-29T06:04:15;2.20;;;2.00;;
13218;SDS011;6674;49.152;11.918;2022-07-29T06:06:42;2.00;;;1.90;;
13218;SDS011;6674;49.152;11.918;2022-07-29T06:09:08;2.67;;;2.10;;
13218;SDS011;6674;49.152;11.918;2022-07-29T06:11:35;2.10;;;1.90;;
13218;SDS011;6674;49.152;11.918;2022-07-29T06:14:01;2.10;;;1.90;;
13218;SDS011;6674;49.152;11.918;2022-07-29T06:16:30;3.10;;;2.30;;
13218;SDS011;6674;49.152;11.918;2022-07-29T06:18:57;2.40;;;2.20;;
13218;SDS011;6674;49.152;11.918;2022-07-29T06:21:23;2.23;;;2.03;;
13218;SDS011;6674;49.152;11.918;2022-07-29T06:23:50;3.10;;;2.07;;
13218;SDS011;6674;49.152;11.918;2022-07-29T06:26:16;2.13;;;2.00;;
13218;SDS011;6674;49.152;11.918;2022-07-29T06:28:43;2.37;;;2.17;;
13218;SDS011;6674;49.152;11.918;2022-07-29T06:31:10;2.13;;;1.93;;
13218;SDS011;6674;49.152;11.918;2022-07-29T06:33:38;2.00;;;1.90;;
13218;SDS011;6674;49.152;11.918;2022-07-29T06:36:04;2.37;;;2.17;;
13218;SDS011;6674;49.152;11.918;2022-07-29T06:38:32;2.33;;;2.13;;
13218;SDS011;6674;49.152;11.918;2022-07-29T06:40:58;2.30;;;2.00;;
13218;SDS011;6674;49.152;11.918;2022-07-29T06:43:26;3.57;;;2.40;;
13218;SDS011;6674;49.152;11.918;2022-07-29T06:45:54;3.00;;;2.37;;
13218;SDS011;6674;49.152;11.918;2022-07-29T06:48:21;2.20;;;2.00;;
13218;SDS011;6674;49.152;11.918;2022-07-29T06:50:49;2.20;;;2.00;;
13218;SDS011;6674;49.152;11.918;2022-07-29T06:53:15;1.90;;;1.80;;
13218;SDS011;6674;49.152;11.918;2022-07-29T06:55:42;3.70;;;2.33;;
13218;SDS011;6674;49.152;11.918;2022-07-29T06:58:09;2.40;;;2.20;;
13218;SDS011;6674;49.152;11.918;2022-07-29T07:00:36;2.13;;;1.97;;
13218;SDS011;6674;49.152;11.918;2022-07-29T07:03:02;2.10;;;2.00;;
13218;SDS011;6674;49.152;11.918;2022-07-29T07:05:29;2.13;;;1.93;;
13218;SDS011;6674;49.152;11.918;2022-07-29T07:07:57;2.30;;;2.10;;
13218;SDS011;6674;49.152;11.918;2022-07-29T07:10:24;2.47;;;2.27;;
13218;SDS011;6674;49.152;11.918;2022-07-29T07:12:50;2.57;;;2.10;;
13218;SDS011;6674;49.152;11.918;2022-07-29T07:15:17;2.70;;;2.10;;
13218;SDS011;6674;49.152;11.918;2022-07-29T07:17:47;2.17;;;1.97;;
13218;SDS011;6674;49.152;11.918;2022-07-29T07:20:13;2.40;;;2.20;;
13218;SDS011;6674;49.152;11.918;2022-07-29T07:22:40;2.33;;;2.13;;
13218;SDS011;6674;49.152;11.918;2022-07-29T07:25:08;2.93;;;2.50;;
13218;SDS011;6674;49.152;11.918;2022-07-29T07:27:35;2.37;;;2.20;;
13218;SDS011;6674;49.152;11.918;2022-07-29T07:30:02;2.30;;;2.10;;
13218;SDS011;6674;49.152;11.918;2022-07-29T07:32:30;2.73;;;2.30;;
13218;SDS011;6674;49.152;11.918;2022-07-29T07:34:57;2.43;;;2.20;;
13218;SDS011;6674;49.152;11.918;2022-07-29T07:37:24;3.93;;;2.63;;
13218;SDS011;6674;49.152;11.918;2022-07-29T07:39:51;2.77;;;2.20;;
13218;SDS011;6674;49.152;11.918;2022-07-29T07:42:20;2.37;;;2.17;;
13218;SDS011;6674;49.152;11.918;2022-07-29T07:44:46;2.30;;;2.10;;
13218;SDS011;6674;49.152;11.918;2022-07-29T07:47:13;2.43;;;2.23;;
13218;SDS011;6674;49.152;11.918;2022-07-29T07:49:40;3.23;;;2.30;;
13218;SDS011;6674;49.152;11.918;2022-07-29T07:52:07;2.40;;;2.30;;
13218;SDS011;6674;49.152;11.918;2022-07-29T07:54:34;3.60;;;3.00;;
13218;SDS011;6674;49.152;11.918;2022-07-29T07:57:01;2.53;;;2.40;;
13218;SDS011;6674;49.152;11.918;2022-07-29T07:59:28;3.10;;;2.70;;
13218;SDS011;6674;49.152;11.918;2022-07-29T08:01:55;3.10;;;2.80;;
13218;SDS011;6674;49.152;11.918;2022-07-29T08:04:22;3.17;;;2.93;;
13218;SDS011;6674;49.152;11.918;2022-07-29T08:06:50;2.73;;;2.40;;
13218;SDS011;6674;49.152;11.918;2022-07-29T08:09:19;2.70;;;2.50;;
13218;SDS011;6674;49.152;11.918;2022-07-29T08:11:46;3.43;;;3.07;;
13218;SDS011;6674;49.152;11.918;2022-07-29T08:14:12;2.60;;;2.40;;
13218;SDS011;6674;49.152;11.918;2022-07-29T08:16:40;2.83;;;2.63;;
13218;SDS011;6674;49.152;11.918;2022-07-29T08:19:07;3.03;;;2.80;;
13218;SDS011;6674;49.152;11.918;2022-07-29T08:21:34;2.80;;;2.60;;
13218;SDS011;6674;49.152;11.918;2022-07-29T08:24:01;3.10;;;2.80;;
13218;SDS011;6674;49.152;11.918;2022-07-29T08:26:42;3.27;;;2.97;;
13218;SDS011;6674;49.152;11.918;2022-07-29T08:29:08;3.40;;;3.10;;
13218;SDS011;6674;49.152;11.918;2022-07-29T08:31:35;3.33;;;2.77;;
13218;SDS011;6674;49.152;11.918;2022-07-29T08:34:04;3.53;;;3.23;;
13218;SDS011;6674;49.152;11.918;2022-07-29T08:36:31;3.57;;;3.20;;
13218;SDS011;6674;49.152;11.918;2022-07-29T08:38:58;3.07;;;2.87;;
13218;SDS011;6674;49.152;11.918;2022-07-29T08:41:26;3.10;;;2.87;;
13218;SDS011;6674;49.152;11.918;2022-07-29T08:43:53;3.50;;;3.20;;
13218;SDS011;6674;49.152;11.918;2022-07-29T08:46:20;2.77;;;2.57;;
13218;SDS011;6674;49.152;11.918;2022-07-29T08:48:47;4.47;;;3.37;;
13218;SDS011;6674;49.152;11.918;2022-07-29T08:51:16;2.80;;;2.60;;
13218;SDS011;6674;49.152;11.918;2022-07-29T08:53:46;3.00;;;2.70;;
13218;SDS011;6674;49.152;11.918;2022-07-29T08:56:14;3.03;;;2.83;;
13218;SDS011;6674;49.152;11.918;2022-07-29T08:58:43;3.20;;;2.90;;
13218;SDS011;6674;49.152;11.918;2022-07-29T09:01:11;3.37;;;3.07;;
13218;SDS011;6674;49.152;11.918;2022-07-29T09:03:40;3.03;;;2.83;;
13218;SDS011;6674;49.152;11.918;2022-07-29T09:06:11;4.53;;;3.07;;
13218;SDS011;6674;49.152;11.918;2022-07-29T09:08:40;3.80;;;3.20;;
13218;SDS011;6674;49.152;11.918;2022-07-29T09:11:08;3.33;;;3.03;;
13218;SDS011;6674;49.152;11.918;2022-07-29T09:13:35;3.30;;;3.00;;
13218;SDS011;6674;49.152;11.918;2022-07-29T09:16:02;3.40;;;3.10;;
13218;SDS011;6674;49.152;11.918;2022-07-29T09:18:35;3.40;;;3.20;;
13218;SDS011;6674;49.152;11.918;2022-07-29T09:21:04;3.77;;;3.40;;
13218;SDS011;6674;49.152;11.918;2022-07-29T09:24:00;3.83;;;3.60;;
13218;SDS011;6674;49.152;11.918;2022-07-29T09:26:32;4.07;;;3.70;;
13218;SDS011;6674;49.152;11.918;2022-07-29T09:28:59;22.03;;;5.80;;
13218;SDS011;6674;49.152;11.918;2022-07-29T09:31:33;3.73;;;3.43;;
13218;SDS011;6674;49.152;11.918;2022-07-29T09:34:02;3.90;;;3.60;;
13218;SDS011;6674;49.152;11.918;2022-07-29T09:36:29;3.40;;;3.10;;
13218;SDS011;6674;49.152;11.918;2022-07-29T09:38:59;3.63;;;3.33;;
13218;SDS011;6674;49.152;11.918;2022-07-29T09:41:28;4.23;;;3.50;;
13218;SDS011;6674;49.152;11.918;2022-07-29T09:43:55;3.73;;;3.30;;
13218;SDS011;6674;49.152;11.918;2022-07-29T09:46:22;3.53;;;3.23;;
13218;SDS011;6674;49.152;11.918;2022-07-29T09:51:40;3.53;;;3.20;;
13218;SDS011;6674;49.152;11.918;2022-07-29T09:54:23;3.35;;;2.97;;
13218;SDS011;6674;49.152;11.918;2022-07-29T09:56:51;3.33;;;3.03;;
13218;SDS011;6674;49.152;11.918;2022-07-29T09:59:19;3.53;;;3.28;;
13218;SDS011;6674;49.152;11.918;2022-07-29T10:01:50;3.10;;;2.80;;
13218;SDS011;6674;49.152;11.918;2022-07-29T10:04:17;3.05;;;2.85;;
13218;SDS011;6674;49.152;11.918;2022-07-29T10:06:57;3.92;;;3.50;;
13218;SDS011;6674;49.152;11.918;2022-07-29T10:09:26;3.38;;;3.17;;
13218;SDS011;6674;49.152;11.918;2022-07-29T10:12:02;3.60;;;3.30;;
13218;SDS011;6674;49.152;11.918;2022-07-29T10:14:30;3.20;;;3.00;;
13218;SDS011;6674;49.152;11.918;2022-07-29T10:16:58;3.35;;;3.05;;
13218;SDS011;6674;49.152;11.918;2022-07-29T10:19:26;3.03;;;2.83;;
13218;SDS011;6674;49.152;11.918;2022-07-29T10:21:55;3.38;;;3.08;;
13218;SDS011;6674;49.152;11.918;2022-07-29T10:24:23;3.33;;;3.13;;
13218;SDS011;6674;49.152;11.918;2022-07-29T10:26:53;3.80;;;3.33;;
13218;SDS011;6674;49.152;11.918;2022-07-29T10:29:20;3.55;;;3.35;;
13218;SDS011;6674;49.152;11.918;2022-07-29T10:31:48;3.83;;;3.42;;
13218;SDS011;6674;49.152;11.918;2022-07-29T10:34:23;3.40;;;3.10;;
13218;SDS011;6674;49.152;11.918;2022-07-29T10:37:03;3.85;;;3.33;;
13218;SDS011;6674;49.152;11.918;2022-07-29T10:39:39;3.78;;;3.47;;
13218;SDS011;6674;49.152;11.918;2022-07-29T10:42:16;3.08;;;2.90;;
13218;SDS011;6674;49.152;11.918;2022-07-29T10:44:45;3.20;;;2.90;;
13218;SDS011;6674;49.152;11.918;2022-07-29T10:47:19;3.10;;;2.90;;
13218;SDS011;6674;49.152;11.918;2022-07-29T10:49:54;3.40;;;3.10;;
13218;SDS011;6674;49.152;11.918;2022-07-29T10:52:23;3.10;;;2.90;;
13218;SDS011;6674;49.152;11.918;2022-07-29T10:54:54;3.30;;;3.05;;
13218;SDS011;6674;49.152;11.918;2022-07-29T10:57:24;3.10;;;2.80;;
13218;SDS011;6674;49.152;11.918;2022-07-29T11:02:57;3.13;;;2.90;;
13218;SDS011;6674;49.152;11.918;2022-07-29T11:05:25;2.85;;;2.60;;
13218;SDS011;6674;49.152;11.918;2022-07-29T11:10:50;3.17;;;2.80;;
13218;SDS011;6674;49.152;11.918;2022-07-29T11:16:17;3.25;;;2.47;;
13218;SDS011;6674;49.152;11.918;2022-07-29T11:21:47;2.95;;;2.72;;
13218;SDS011;6674;49.152;11.918;2022-07-29T11:24:15;2.70;;;2.50;;
13218;SDS011;6674;49.152;11.918;2022-07-29T11:26:44;2.70;;;2.50;;
13218;SDS011;6674;49.152;11.918;2022-07-29T11:29:16;2.38;;;2.28;;
13218;SDS011;6674;49.152;11.918;2022-07-29T11:31:48;3.22;;;2.92;;
13218;SDS011;6674;49.152;11.918;2022-07-29T11:34:23;2.70;;;2.60;;
13218;SDS011;6674;49.152;11.918;2022-07-29T11:42:46;2.70;;;2.50;;
13218;SDS011;6674;49.152;11.918;2022-07-29T11:45:20;3.10;;;2.85;;
13218;SDS011;6674;49.152;11.918;2022-07-29T11:47:57;2.78;;;2.55;;
13218;SDS011;6674;49.152;11.918;2022-07-29T11:50:32;2.90;;;2.70;;
13218;SDS011;6674;49.152;11.918;2022-07-29T11:53:01;2.88;;;2.60;;
13218;SDS011;6674;49.152;11.918;2022-07-29T11:55:29;3.67;;;2.70;;
13218;SDS011;6674;49.152;11.918;2022-07-29T11:58:02;2.85;;;2.65;;
13218;SDS011;6674;49.152;11.918;2022-07-29T12:00:30;2.60;;;2.40;;
13218;SDS011;6674;49.152;11.918;2022-07-29T12:02:59;2.30;;;2.20;;
13218;SDS011;6674;49.152;11.918;2022-07-29T12:05:31;2.25;;;2.15;;
13218;SDS011;6674;49.152;11.918;2022-07-29T12:08:04;2.95;;;2.75;;
13218;SDS011;6674;49.152;11.918;2022-07-29T12:10:38;2.30;;;2.20;;
13218;SDS011;6674;49.152;11.918;2022-07-29T12:13:07;2.92;;;2.35;;
13218;SDS011;6674;49.152;11.918;2022-07-29T12:15:36;2.15;;;1.98;;
13218;SDS011;6674;49.152;11.918;2022-07-29T12:18:15;6.57;;;2.55;;
13218;SDS011;6674;49.152;11.918;2022-07-29T12:20:44;4.82;;;2.40;;
13218;SDS011;6674;49.152;11.918;2022-07-29T12:23:11;5.00;;;2.22;;
13218;SDS011;6674;49.152;11.918;2022-07-29T12:25:38;3.13;;;2.17;;
13218;SDS011;6674;49.152;11.918;2022-07-29T12:28:09;6.07;;;2.10;;
13218;SDS011;6674;49.152;11.918;2022-07-29T12:30:41;4.25;;;2.20;;
13218;SDS011;6674;49.152;11.918;2022-07-29T12:33:10;3.22;;;2.03;;
13218;SDS011;6674;49.152;11.918;2022-07-29T12:35:42;2.53;;;2.20;;
13218;SDS011;6674;49.152;11.918;2022-07-29T12:38:10;2.50;;;2.30;;
13218;SDS011;6674;49.152;11.918;2022-07-29T12:40:37;1.60;;;1.50;;
13218;SDS011;6674;49.152;11.918;2022-07-29T12:43:05;1.95;;;1.60;;
13218;SDS011;6674;49.152;11.918;2022-07-29T12:45:35;2.15;;;1.95;;
13218;SDS011;6674;49.152;11.918;2022-07-29T12:48:02;1.85;;;1.75;;
13218;SDS011;6674;49.152;11.918;2022-07-29T12:50:28;1.77;;;1.67;;
13218;SDS011;6674;49.152;11.918;2022-07-29T12:53:07;2.03;;;1.85;;
13218;SDS011;6674;49.152;11.918;2022-07-29T12:55:38;1.73;;;1.63;;
13218;SDS011;6674;49.152;11.918;2022-07-29T12:58:07;2.05;;;1.70;;
13218;SDS011;6674;49.152;11.918;2022-07-29T13:00:34;2.90;;;2.30;;
13218;SDS011;6674;49.152;11.918;2022-07-29T13:03:01;2.30;;;2.10;;
13218;SDS011;6674;49.152;11.918;2022-07-29T13:05:41;2.75;;;2.08;;
13218;SDS011;6674;49.152;11.918;2022-07-29T13:08:10;1.92;;;1.83;;
13218;SDS011;6674;49.152;11.918;2022-07-29T13:10:38;1.80;;;1.70;;
13218;SDS011;6674;49.152;11.918;2022-07-29T13:13:06;2.33;;;2.05;;
13218;SDS011;6674;49.152;11.918;2022-07-29T13:15:35;2.95;;;2.67;;
13218;SDS011;6674;49.152;11.918;2022-07-29T13:18:02;2.38;;;2.17;;
13218;SDS011;6674;49.152;11.918;2022-07-29T13:20:30;2.40;;;2.30;;
13218;SDS011;6674;49.152;11.918;2022-07-29T13:22:58;2.00;;;1.90;;
13218;SDS011;6674;49.152;11.918;2022-07-29T13:25:26;4.55;;;3.03;;
13218;SDS011;6674;49.152;11.918;2022-07-29T13:27:53;2.80;;;2.60;;
13218;SDS011;6674;49.152;11.918;2022-07-29T13:30:22;2.87;;;2.67;;
13218;SDS011;6674;49.152;11.918;2022-07-29T13:32:49;3.47;;;3.10;;
13218;SDS011;6674;49.152;11.918;2022-07-29T13:35:17;3.67;;;3.33;;
13218;SDS011;6674;49.152;11.918;2022-07-29T13:37:45;3.17;;;2.87;;
13218;SDS011;6674;49.152;11.918;2022-07-29T13:40:12;2.60;;;2.40;;
13218;SDS011;6674;49.152;11.918;2022-07-29T13:42:39;2.33;;;2.20;;
13218;SDS011;6674;49.152;11.918;2022-07-29T13:45:07;2.27;;;2.10;;
13218;SDS011;6674;49.152;11.918;2022-07-29T13:47:36;2.73;;;2.20;;
13218;SDS011;6674;49.152;11.918;2022-07-29T13:50:03;2.50;;;1.80;;
13218;SDS011;6674;49.152;11.918;2022-07-29T13:52:32;2.57;;;2.37;;
13218;SDS011;6674;49.152;11.918;2022-07-29T13:54:59;2.60;;;2.40;;
13218;SDS011;6674;49.152;11.918;2022-07-29T13:57:25;3.40;;;3.10;;
13218;SDS011;6674;49.152;11.918;2022-07-29T13:59:52;3.00;;;2.70;;
13218;SDS011;6674;49.152;11.918;2022-07-29T14:02:19;2.80;;;2.60;;
13218;SDS011;6674;49.152;11.918;2022-07-29T14:04:47;2.63;;;2.47;;
13218;SDS011;6674;49.152;11.918;2022-07-29T14:07:14;2.60;;;2.40;;
13218;SDS011;6674;49.152;11.918;2022-07-29T14:09:41;2.93;;;2.73;;
13218;SDS011;6674;49.152;11.918;2022-07-29T14:12:07;3.07;;;2.87;;
13218;SDS011;6674;49.152;11.918;2022-07-29T14:14:35;2.73;;;2.53;;
13218;SDS011;6674;49.152;11.918;2022-07-29T14:17:01;2.93;;;2.73;;
13218;SDS011;6674;49.152;11.918;2022-07-29T14:19:31;3.00;;;2.80;;
13218;SDS011;6674;49.152;11.918;2022-07-29T14:22:02;2.63;;;2.43;;
13218;SDS011;6674;49.152;11.918;2022-07-29T14:24:29;2.77;;;2.57;;
13218;SDS011;6674;49.152;11.918;2022-07-29T14:26:56;2.40;;;2.30;;
13218;SDS011;6674;49.152;11.918;2022-07-29T14:29:22;3.00;;;2.73;;
13218;SDS011;6674;49.152;11.918;2022-07-29T14:31:49;2.60;;;2.40;;
13218;SDS011;6674;49.152;11.918;2022-07-29T14:34:16;2.43;;;2.33;;
13218;SDS011;6674;49.152;11.918;2022-07-29T14:36:42;2.50;;;2.30;;
13218;SDS011;6674;49.152;11.918;2022-07-29T14:39:10;3.53;;;2.47;;
13218;SDS011;6674;49.152;11.918;2022-07-29T14:41:37;2.20;;;2.10;;
13218;SDS011;6674;49.152;11.918;2022-07-29T14:44:04;2.07;;;1.97;;
13218;SDS011;6674;49.152;11.918;2022-07-29T14:46:31;2.27;;;2.13;;
13218;SDS011;6674;49.152;11.918;2022-07-29T14:48:57;1.90;;;1.80;;
13218;SDS011;6674;49.152;11.918;2022-07-29T14:51:24;2.00;;;1.90;;
13218;SDS011;6674;49.152;11.918;2022-07-29T14:53:50;1.70;;;1.60;;
13218;SDS011;6674;49.152;11.918;2022-07-29T14:56:19;2.47;;;1.90;;
13218;SDS011;6674;49.152;11.918;2022-07-29T14:58:45;2.13;;;2.03;;
13218;SDS011;6674;49.152;11.918;2022-07-29T15:01:12;2.47;;;2.27;;
13218;SDS011;6674;49.152;11.918;2022-07-29T15:03:39;2.23;;;2.10;;
13218;SDS011;6674;49.152;11.918;2022-07-29T15:06:05;2.23;;;2.07;;
13218;SDS011;6674;49.152;11.918;2022-07-29T15:08:33;2.10;;;1.73;;
13218;SDS011;6674;49.152;11.918;2022-07-29T15:11:00;2.00;;;1.90;;
13218;SDS011;6674;49.152;11.918;2022-07-29T15:13:28;1.90;;;1.80;;
13218;SDS011;6674;49.152;11.918;2022-07-29T15:15:54;2.17;;;1.97;;